createdAt,value
2022-11-15T00:02:06.005Z,4.50
2022-11-15T00:04:53.289Z,4.57
2022-11-15T00:07:55.262Z,4.59
2022-11-15T00:10:43.761Z,4.62
2022-11-15T00:13:31.994Z,4.67
2022-11-15T00:16:19.169Z,4.68
2022-11-15T00:19:06.212Z,4.70
2022-11-15T00:21:52.968Z,4.67
2022-11-15T00:24:40.210Z,4.69
2022-11-15T00:27:28.548Z,4.71
2022-11-15T00:30:15.439Z,4.72
2022-11-15T00:33:07.293Z,4.68
2022-11-15T00:35:54.617Z,4.76
2022-11-15T00:38:41.850Z,4.71
2022-11-15T00:41:28.590Z,4.71
2022-11-15T00:44:15.400Z,4.80
2022-11-15T00:47:02.651Z,4.81
2022-11-15T00:49:49.909Z,4.78
2022-11-15T00:52:36.877Z,4.79
2022-11-15T00:55:24.190Z,4.83
2022-11-15T00:58:11.513Z,4.83
2022-11-15T01:01:08.660Z,4.85
2022-11-15T01:04:00.917Z,4.90
2022-11-15T01:06:48.594Z,4.98
2022-11-15T01:09:35.964Z,4.94
2022-11-15T01:12:23.270Z,5.01
2022-11-15T01:15:10.708Z,4.97
2022-11-15T01:17:57.664Z,4.99
2022-11-15T01:20:45.070Z,5.04
2022-11-15T01:23:32.395Z,5.04
2022-11-15T01:26:19.707Z,5.03
2022-11-15T01:29:07.046Z,5.04
2022-11-15T01:31:55.197Z,5.07
2022-11-15T01:34:42.563Z,5.15
2022-11-15T01:37:29.544Z,5.13
2022-11-15T01:40:16.287Z,5.06
2022-11-15T01:43:41.092Z,5.03
2022-11-15T01:46:35.986Z,5.04
2022-11-15T01:49:26.031Z,5.04
2022-11-15T01:52:19.488Z,5.11
2022-11-15T01:55:08.714Z,5.11
2022-11-15T01:58:02.850Z,5.10
2022-11-15T02:00:51.477Z,5.07
2022-11-15T02:03:50.623Z,5.09
2022-11-15T02:06:38.034Z,5.14
2022-11-15T02:09:25.269Z,5.21
2022-11-15T02:12:16.289Z,5.16
2022-11-15T02:15:05.599Z,5.21
2022-11-15T02:18:35.309Z,5.18
2022-11-15T02:21:47.596Z,5.21
2022-11-15T02:24:57.252Z,5.23
2022-11-15T02:28:30.075Z,5.28
2022-11-15T02:31:49.059Z,5.34
2022-11-15T02:35:03.932Z,5.33
2022-11-15T02:38:06.790Z,5.33
2022-11-15T02:41:04.338Z,5.41
2022-11-15T02:44:13.684Z,5.36
2022-11-15T02:47:15.197Z,5.36
2022-11-15T02:50:11.163Z,5.35
2022-11-15T02:52:58.428Z,5.29
2022-11-15T02:55:51.464Z,5.28
2022-11-15T02:59:13.216Z,5.34
2022-11-15T03:02:21.418Z,5.33
2022-11-15T03:05:34.786Z,5.37
2022-11-15T03:08:35.833Z,5.38
2022-11-15T03:11:25.002Z,5.35
2022-11-15T03:14:50.133Z,5.33
2022-11-15T03:17:49.637Z,5.32
2022-11-15T03:20:38.009Z,5.35
2022-11-15T03:23:25.947Z,5.34
2022-11-15T03:26:17.399Z,5.34
2022-11-15T03:29:18.819Z,5.32
2022-11-15T03:32:17.796Z,5.36
2022-11-15T03:35:16.639Z,5.42
2022-11-15T03:38:33.030Z,5.49
2022-11-15T03:41:44.744Z,5.51
2022-11-15T03:45:17.321Z,5.50
2022-11-15T03:48:40.434Z,5.49
2022-11-15T03:51:27.341Z,5.58
2022-11-15T03:54:14.737Z,5.56
2022-11-15T03:57:01.868Z,5.56
2022-11-15T03:59:49.143Z,5.59
2022-11-15T04:02:36.587Z,5.60
2022-11-15T04:05:23.808Z,5.63
2022-11-15T04:08:10.803Z,5.62
2022-11-15T04:10:58.878Z,5.61
2022-11-15T04:13:45.997Z,5.64
2022-11-15T04:16:32.753Z,5.67
2022-11-15T04:19:38.609Z,5.71
2022-11-15T04:22:49.787Z,5.69
2022-11-15T04:25:45.046Z,5.75
2022-11-15T04:28:32.798Z,5.78
2022-11-15T04:31:19.839Z,5.86
2022-11-15T04:34:07.233Z,5.88
2022-11-15T04:37:12.824Z,5.99
2022-11-15T04:40:00.684Z,6.05
2022-11-15T04:42:56.283Z,6.10
2022-11-15T04:45:46.124Z,6.18
2022-11-15T04:48:40.407Z,6.22
2022-11-15T04:51:56.026Z,6.29
2022-11-15T04:54:48.287Z,6.35
2022-11-15T04:57:36.908Z,6.37
2022-11-15T05:00:24.779Z,6.42
2022-11-15T05:03:31.541Z,6.44
2022-11-15T05:06:23.668Z,6.47
2022-11-15T05:09:12.264Z,6.51
2022-11-15T05:12:08.588Z,6.52
2022-11-15T05:15:00.566Z,6.52
2022-11-15T05:17:47.899Z,6.55
2022-11-15T05:20:37.402Z,6.57
2022-11-15T05:24:37.038Z,6.56
2022-11-15T05:28:43.143Z,6.65
2022-11-15T05:31:35.203Z,6.66
2022-11-15T05:34:24.398Z,6.67
2022-11-15T05:37:12.132Z,6.66
2022-11-15T05:39:59.672Z,6.75
2022-11-15T05:42:48.219Z,6.78
2022-11-15T05:45:37.716Z,6.82
2022-11-15T05:48:25.663Z,6.86
2022-11-15T05:51:17.140Z,6.90
2022-11-15T05:54:04.915Z,6.93
2022-11-15T05:56:54.122Z,6.92
2022-11-15T05:59:44.842Z,6.93
2022-11-15T06:02:32.945Z,6.96
2022-11-15T06:05:20.938Z,6.92
2022-11-15T06:08:12.073Z,6.94
2022-11-15T06:11:07.301Z,6.95
2022-11-15T06:13:56.101Z,6.98
2022-11-15T06:16:43.827Z,7.05
2022-11-15T06:19:34.713Z,7.04
2022-11-15T06:22:22.420Z,7.04
2022-11-15T06:25:11.146Z,7.11
2022-11-15T06:28:00.794Z,7.14
2022-11-15T06:30:53.031Z,7.16
2022-11-15T06:33:41.254Z,7.16
2022-11-15T06:36:29.802Z,7.22
2022-11-15T06:39:18.298Z,7.28
2022-11-15T06:42:05.929Z,7.31
2022-11-15T06:44:53.496Z,7.36
2022-11-15T06:47:48.372Z,7.40
2022-11-15T06:50:39.444Z,7.47
2022-11-15T06:53:28.232Z,7.49
2022-11-15T06:56:15.648Z,7.48
2022-11-15T06:59:03.464Z,7.51
2022-11-15T07:01:51.475Z,7.56
2022-11-15T07:04:39.109Z,7.65
2022-11-15T07:07:27.180Z,7.61
2022-11-15T07:10:14.578Z,7.56
2022-11-15T07:13:02.214Z,7.64
2022-11-15T07:15:49.740Z,7.56
2022-11-15T07:18:41.760Z,7.61
2022-11-15T07:21:29.514Z,7.65
2022-11-15T07:24:16.918Z,7.75
2022-11-15T07:27:04.349Z,7.77
2022-11-15T07:29:51.567Z,7.77
2022-11-15T07:32:39.022Z,7.89
2022-11-15T07:35:28.133Z,7.89
2022-11-15T07:38:20.787Z,7.80
2022-11-15T07:41:08.888Z,7.83
2022-11-15T07:43:56.407Z,7.89
2022-11-15T07:46:43.995Z,7.88
2022-11-15T07:49:31.734Z,8.03
2022-11-15T07:52:19.128Z,8.05
2022-11-15T07:55:07.246Z,8.14
2022-11-15T07:58:01.260Z,8.22
2022-11-15T08:00:48.682Z,8.18
2022-11-15T08:03:37.235Z,8.21
2022-11-15T08:06:24.844Z,8.28
2022-11-15T08:09:12.579Z,8.38
2022-11-15T08:12:00.233Z,8.37
2022-11-15T08:14:47.806Z,8.38
2022-11-15T08:17:35.442Z,8.31
2022-11-15T08:20:30.159Z,8.38
2022-11-15T08:23:17.974Z,8.47
2022-11-15T08:26:06.884Z,8.42
2022-11-15T08:28:54.702Z,8.51
2022-11-15T08:31:42.454Z,8.60
2022-11-15T08:34:30.146Z,8.60
2022-11-15T08:37:17.499Z,8.75
2022-11-15T08:40:06.713Z,8.84
2022-11-15T08:42:55.145Z,8.89
2022-11-15T08:45:42.639Z,8.72
2022-11-15T08:48:31.106Z,8.83
2022-11-15T08:51:19.663Z,8.84
2022-11-15T08:54:07.410Z,8.73
2022-11-15T08:56:55.573Z,8.83
2022-11-15T08:59:43.255Z,8.85
2022-11-15T09:02:31.858Z,8.96
2022-11-15T09:05:20.175Z,8.85
2022-11-15T09:08:32.408Z,8.83
2022-11-15T09:11:19.244Z,8.93
2022-11-15T09:14:06.976Z,8.98
2022-11-15T09:16:54.626Z,8.97
2022-11-15T09:19:43.758Z,9.05
2022-11-15T09:22:31.875Z,9.14
2022-11-15T09:25:20.522Z,9.19
2022-11-15T09:28:10.345Z,9.25
2022-11-15T09:31:04.540Z,9.36
2022-11-15T09:33:51.968Z,9.36
2022-11-15T09:36:39.443Z,9.37
2022-11-15T09:39:27.997Z,9.43
2022-11-15T09:43:25.537Z,9.50
2022-11-15T09:46:53.011Z,9.62
2022-11-15T09:49:34.848Z,9.59
2022-11-15T09:52:20.004Z,9.50
2022-11-15T09:54:54.016Z,9.37
2022-11-15T09:57:51.992Z,9.33
2022-11-15T10:00:52.868Z,9.32
2022-11-15T10:03:36.562Z,9.37
2022-11-15T10:06:08.070Z,9.38
2022-11-15T10:09:25.334Z,9.35
2022-11-15T10:11:55.094Z,9.44
2022-11-15T10:14:29.898Z,9.44
2022-11-15T10:17:14.196Z,9.49
2022-11-15T10:20:07.059Z,9.49
2022-11-15T10:23:07.436Z,9.44
2022-11-15T10:25:39.782Z,9.58
2022-11-15T10:28:18.210Z,9.51
2022-11-15T10:30:51.673Z,9.56
2022-11-15T10:33:40.854Z,9.63
2022-11-15T10:36:09.929Z,9.64
2022-11-15T10:38:51.346Z,9.51
2022-11-15T10:41:28.829Z,9.54
2022-11-15T10:44:19.542Z,9.59
2022-11-15T10:47:07.769Z,9.83
2022-11-15T10:49:36.900Z,9.68
2022-11-15T10:52:21.978Z,9.63
2022-11-15T10:55:22.478Z,9.72
2022-11-15T10:58:08.485Z,9.69
2022-11-15T11:00:43.048Z,9.53
2022-11-15T11:03:39.180Z,9.50
2022-11-15T11:06:14.719Z,9.54
2022-11-15T11:09:00.107Z,9.56
2022-11-15T11:11:52.086Z,9.63
2022-11-15T11:14:32.304Z,9.61
2022-11-15T11:17:35.093Z,9.69
2022-11-15T11:20:31.322Z,9.76
2022-11-15T11:23:34.353Z,9.71
2022-11-15T11:26:22.690Z,9.64
2022-11-15T11:29:16.745Z,9.73
2022-11-15T11:32:19.907Z,9.65
2022-11-15T11:35:15.634Z,9.64
2022-11-15T11:38:17.924Z,9.67
2022-11-15T11:41:37.163Z,9.79
2022-11-15T11:44:29.865Z,9.82
2022-11-15T11:47:17.558Z,9.84
2022-11-15T11:50:16.254Z,9.85
2022-11-15T11:53:16.264Z,9.91
2022-11-15T11:55:53.215Z,9.93
2022-11-15T11:58:36.140Z,9.94
2022-11-15T12:01:26.227Z,9.96
2022-11-15T12:04:10.752Z,10.04
2022-11-15T12:06:55.071Z,10.14
2022-11-15T12:10:21.307Z,10.18
2022-11-15T12:13:17.880Z,10.09
2022-11-15T12:16:06.094Z,10.17
2022-11-15T12:18:39.708Z,10.18
2022-11-15T12:21:32.257Z,10.08
2022-11-15T12:24:21.991Z,10.03
2022-11-15T12:27:25.078Z,10.01
2022-11-15T12:30:05.158Z,10.09
2022-11-15T12:32:42.403Z,10.11
2022-11-15T12:35:31.998Z,10.06
2022-11-15T12:38:01.625Z,10.13
2022-11-15T12:40:40.790Z,10.10
2022-11-15T12:43:16.189Z,10.19
2022-11-15T12:45:47.726Z,10.26
2022-11-15T12:48:20.521Z,10.31
2022-11-15T12:50:57.197Z,10.31
2022-11-15T12:53:26.587Z,10.36
2022-11-15T12:56:13.896Z,10.34
2022-11-15T12:59:03.895Z,10.38
2022-11-15T13:01:42.413Z,10.35
2022-11-15T13:04:20.752Z,10.29
2022-11-15T13:06:53.576Z,10.20
2022-11-15T13:09:38.323Z,10.13
2022-11-15T13:12:31.152Z,10.11
2022-11-15T13:15:18.922Z,9.97
2022-11-15T13:17:53.155Z,9.91
2022-11-15T13:20:32.268Z,9.90
2022-11-15T13:23:13.677Z,9.70
2022-11-15T13:26:00.576Z,9.67
2022-11-15T13:28:42.639Z,9.65
2022-11-15T13:31:28.961Z,9.65
2022-11-15T13:34:10.051Z,9.59
2022-11-15T13:36:47.667Z,9.59
2022-11-15T13:39:35.397Z,9.61
2022-11-15T13:42:21.822Z,9.47
2022-11-15T13:45:00.264Z,9.47
2022-11-15T13:47:31.171Z,9.41
2022-11-15T13:50:02.405Z,9.33
2022-11-15T13:52:38.814Z,9.28
2022-11-15T13:55:16.752Z,9.25
2022-11-15T13:57:58.429Z,9.18
2022-11-15T14:00:44.583Z,9.12
2022-11-15T14:03:31.561Z,9.12
2022-11-15T14:06:18.582Z,9.10
2022-11-15T14:09:36.474Z,9.02
2022-11-15T14:12:34.896Z,8.97
2022-11-15T14:15:31.943Z,8.93
2022-11-15T14:18:02.101Z,8.86
2022-11-15T14:20:40.837Z,8.79
2022-11-15T14:23:36.885Z,8.82
2022-11-15T14:26:11.432Z,8.80
2022-11-15T14:28:42.094Z,8.79
2022-11-15T14:31:14.512Z,8.81
2022-11-15T14:33:43.853Z,8.81
2022-11-15T14:36:16.026Z,8.82
2022-11-15T14:38:46.594Z,8.78
2022-11-15T14:41:22.063Z,8.73
2022-11-15T14:43:53.157Z,8.69
2022-11-15T14:46:22.128Z,8.62
2022-11-15T14:48:51.513Z,8.57
2022-11-15T14:51:20.302Z,8.53
2022-11-15T14:53:49.542Z,8.49
2022-11-15T14:56:18.351Z,8.46
2022-11-15T14:58:47.257Z,8.39
2022-11-15T15:01:27.247Z,8.36
2022-11-15T15:03:59.892Z,8.33
2022-11-15T15:06:29.157Z,8.26
2022-11-15T15:08:58.373Z,8.21
2022-11-15T15:11:31.221Z,8.15
2022-11-15T15:14:02.401Z,8.12
2022-11-15T15:16:31.148Z,8.08
2022-11-15T15:18:59.814Z,8.04
2022-11-15T15:21:35.391Z,7.98
2022-11-15T15:24:06.095Z,7.91
2022-11-15T15:26:37.699Z,7.88
2022-11-15T15:29:06.546Z,7.86
2022-11-15T15:31:35.830Z,7.81
2022-11-15T15:34:05.922Z,7.75
2022-11-15T15:36:34.980Z,7.69
2022-11-15T15:39:04.129Z,7.64
2022-11-15T15:41:33.069Z,7.60
2022-11-15T15:44:01.630Z,7.54
2022-11-15T15:46:30.470Z,7.49
2022-11-15T15:48:59.432Z,7.47
2022-11-15T15:51:28.273Z,7.43
2022-11-15T15:53:59.331Z,7.40
2022-11-15T15:56:29.392Z,7.37
2022-11-15T15:58:58.167Z,7.34
2022-11-15T16:01:28.265Z,7.30
2022-11-15T16:03:57.484Z,7.25
2022-11-15T16:06:41.709Z,7.20
2022-11-15T16:09:20.225Z,7.20
2022-11-15T16:11:56.149Z,7.14
2022-11-15T16:14:24.915Z,7.10
2022-11-15T16:16:53.782Z,7.04
2022-11-15T16:19:22.530Z,7.03
2022-11-15T16:21:53.183Z,6.98
2022-11-15T16:24:23.683Z,6.94
2022-11-15T16:26:55.459Z,6.90
2022-11-15T16:29:24.057Z,6.83
2022-11-15T16:31:52.805Z,6.77
2022-11-15T16:34:21.648Z,6.70
2022-11-15T16:36:54.736Z,6.64
2022-11-15T16:39:33.592Z,6.58
2022-11-15T16:42:05.309Z,6.51
2022-11-15T16:44:34.088Z,6.45
2022-11-15T16:47:03.176Z,6.41
2022-11-15T16:49:37.920Z,6.37
2022-11-15T16:52:12.539Z,6.29
2022-11-15T16:54:41.244Z,6.25
2022-11-15T16:57:12.228Z,6.21
2022-11-15T16:59:41.059Z,6.17
2022-11-15T17:02:15.417Z,6.14
2022-11-15T17:04:47.303Z,6.10
2022-11-15T17:07:16.316Z,6.01
2022-11-15T17:09:45.091Z,5.98
2022-11-15T17:12:14.621Z,5.91
2022-11-15T17:14:47.349Z,5.85
2022-11-15T17:17:15.896Z,5.80
2022-11-15T17:19:45.869Z,5.75
2022-11-15T17:22:14.537Z,5.72
2022-11-15T17:24:43.754Z,5.68
2022-11-15T17:27:12.292Z,5.64
2022-11-15T17:29:41.686Z,5.60
2022-11-15T17:32:10.391Z,5.57
2022-11-15T17:34:38.968Z,5.55
2022-11-15T17:37:07.736Z,5.52
2022-11-15T17:39:36.383Z,5.45
2022-11-15T17:42:05.174Z,5.46
2022-11-15T17:44:33.879Z,5.44
2022-11-15T17:47:02.478Z,5.42
2022-11-15T17:49:31.231Z,5.39
2022-11-15T17:51:59.950Z,5.37
2022-11-15T17:54:28.720Z,5.34
2022-11-15T17:56:57.628Z,5.32
2022-11-15T17:59:26.542Z,5.31
2022-11-15T18:02:07.561Z,5.31
2022-11-15T18:04:39.638Z,5.30
2022-11-15T18:07:08.957Z,5.28
2022-11-15T18:09:42.531Z,5.26
2022-11-15T18:12:13.077Z,5.21
2022-11-15T18:14:41.792Z,5.17
2022-11-15T18:17:11.098Z,5.14
2022-11-15T18:19:39.759Z,5.11
2022-11-15T18:22:10.570Z,5.10
2022-11-15T18:24:39.270Z,5.10
2022-11-15T18:27:08.971Z,5.08
2022-11-15T18:29:38.281Z,5.04
2022-11-15T18:32:12.895Z,5.01
2022-11-15T18:34:47.135Z,5.00
2022-11-15T18:37:19.393Z,4.99
2022-11-15T18:39:52.737Z,4.98
2022-11-15T18:42:22.577Z,5.01
2022-11-15T18:44:51.460Z,5.01
2022-11-15T18:47:35.088Z,5.03
2022-11-15T18:50:06.779Z,5.01
2022-11-15T18:52:35.760Z,5.01
2022-11-15T18:55:05.709Z,5.00
2022-11-15T18:57:34.436Z,5.00
2022-11-15T19:00:04.496Z,5.01
2022-11-15T19:02:33.353Z,5.01
2022-11-15T19:05:02.035Z,5.00
2022-11-15T19:07:37.322Z,4.98
2022-11-15T19:10:13.908Z,4.94
2022-11-15T19:12:42.589Z,4.91
2022-11-15T19:15:11.664Z,4.90
2022-11-15T19:17:40.252Z,4.87
2022-11-15T19:20:09.778Z,4.83
2022-11-15T19:22:38.721Z,4.79
2022-11-15T19:25:08.742Z,4.75
2022-11-15T19:27:38.333Z,4.70
2022-11-15T19:30:09.561Z,4.65
2022-11-15T19:32:46.389Z,4.66
2022-11-15T19:35:23.860Z,4.63
2022-11-15T19:37:56.713Z,4.59
2022-11-15T19:40:31.632Z,4.58
2022-11-15T19:43:00.710Z,4.56
2022-11-15T19:45:33.188Z,4.55
2022-11-15T19:48:02.181Z,4.49
2022-11-15T19:50:37.785Z,4.48
2022-11-15T19:53:10.214Z,4.46
2022-11-15T19:55:39.074Z,4.47
2022-11-15T19:58:11.966Z,4.44
2022-11-15T20:00:40.633Z,4.41
2022-11-15T20:03:09.357Z,4.41
2022-11-15T20:05:38.349Z,4.37
2022-11-15T20:08:07.147Z,4.30
2022-11-15T20:10:36.022Z,4.29
2022-11-15T20:13:04.796Z,4.15
2022-11-15T20:15:33.292Z,4.13
2022-11-15T20:18:04.494Z,4.10
2022-11-15T20:20:38.325Z,4.12
2022-11-15T20:23:07.789Z,4.13
2022-11-15T20:25:43.695Z,4.13
2022-11-15T20:28:27.017Z,4.14
2022-11-15T20:31:01.159Z,4.13
2022-11-15T20:33:29.914Z,4.12
2022-11-15T20:35:58.413Z,4.09
2022-11-15T20:38:30.289Z,4.07
2022-11-15T20:41:00.572Z,4.05
2022-11-15T20:43:29.699Z,4.03
2022-11-15T20:46:02.530Z,4.01
2022-11-15T20:48:32.313Z,3.99
2022-11-15T20:51:14.399Z,3.97
2022-11-15T20:53:45.546Z,3.93
2022-11-15T20:56:18.337Z,3.88
2022-11-15T20:58:50.627Z,3.84
2022-11-15T21:01:24.924Z,3.78
2022-11-15T21:03:57.893Z,3.75
2022-11-15T21:06:27.781Z,3.72
2022-11-15T21:09:15.437Z,3.67
2022-11-15T21:12:02.915Z,3.67
2022-11-15T21:14:31.581Z,3.63
2022-11-15T21:17:05.179Z,3.59
2022-11-15T21:19:37.183Z,3.56
2022-11-15T21:22:07.471Z,3.53
2022-11-15T21:24:37.161Z,3.51
2022-11-15T21:27:06.476Z,3.49
2022-11-15T21:29:43.009Z,3.43
2022-11-15T21:32:15.965Z,3.38
2022-11-15T21:34:48.933Z,3.35
2022-11-15T21:37:19.968Z,3.34
2022-11-15T21:39:48.661Z,3.32
2022-11-15T21:42:20.233Z,3.30
2022-11-15T21:44:51.194Z,3.31
2022-11-15T21:47:23.189Z,3.30
2022-11-15T21:49:59.274Z,3.27
2022-11-15T21:52:30.592Z,3.25
2022-11-15T21:55:01.815Z,3.24
2022-11-15T21:57:30.444Z,3.24
2022-11-15T22:00:17.396Z,3.24
2022-11-15T22:02:45.922Z,3.24
2022-11-15T22:05:14.518Z,3.22
2022-11-15T22:07:43.039Z,3.21
2022-11-15T22:10:11.554Z,3.19
2022-11-15T22:12:40.140Z,3.18
2022-11-15T22:15:09.134Z,3.16
2022-11-15T22:17:56.568Z,3.17
2022-11-15T22:23:14.841Z,3.13
2022-11-15T22:25:43.742Z,3.13
2022-11-15T22:28:12.402Z,3.13
2022-11-15T22:30:41.280Z,3.10
2022-11-15T22:33:09.978Z,3.08
2022-11-15T22:35:39.696Z,3.06
2022-11-15T22:38:09.295Z,3.05
2022-11-15T22:40:38.806Z,3.03
2022-11-15T22:43:08.105Z,3.00
2022-11-15T22:45:36.677Z,2.97
2022-11-15T22:48:06.809Z,2.95
2022-11-15T22:50:35.479Z,2.94
2022-11-15T22:53:07.457Z,2.93
2022-11-15T22:55:39.305Z,2.94
2022-11-15T22:58:09.064Z,2.97
2022-11-15T23:00:37.720Z,2.94
2022-11-15T23:03:09.218Z,2.88
2022-11-15T23:05:38.879Z,2.86
2022-11-15T23:08:07.921Z,2.81
2022-11-15T23:10:59.143Z,2.77
2022-11-15T23:13:30.564Z,2.76
2022-11-15T23:16:28.822Z,2.73
2022-11-15T23:18:59.935Z,2.71
2022-11-15T23:22:02.687Z,2.71
2022-11-15T23:24:33.526Z,2.69
2022-11-15T23:27:08.264Z,2.70
2022-11-15T23:29:56.343Z,2.68
2022-11-15T23:32:43.749Z,2.66
2022-11-15T23:35:12.743Z,2.69
2022-11-15T23:37:44.056Z,2.68
2022-11-15T23:40:13.545Z,2.68
2022-11-15T23:42:42.188Z,2.66
2022-11-15T23:45:11.533Z,2.64
2022-11-15T23:47:40.311Z,2.60
2022-11-15T23:50:09.192Z,2.56
2022-11-15T23:52:43.263Z,2.51
2022-11-15T23:55:11.926Z,2.48
2022-11-15T23:57:40.676Z,2.46
